createdAt,value
2018-01-21T00:03:24.640Z,28.20
2018-01-21T00:08:29.062Z,28.47
2018-01-21T00:13:32.908Z,31.87
2018-01-21T00:18:37.128Z,32.87
2018-01-21T00:23:40.607Z,37.27
2018-01-21T00:28:43.700Z,40.77
2018-01-21T00:33:48.295Z,44.27
2018-01-21T00:38:52.727Z,47.20
2018-01-21T00:43:55.811Z,43.27
2018-01-21T00:48:58.904Z,43.23
2018-01-21T00:54:03.354Z,39.97
2018-01-21T00:59:06.819Z,38.50
2018-01-21T01:04:11.262Z,39.30
2018-01-21T01:09:15.704Z,38.10
2018-01-21T01:14:18.781Z,40.03
2018-01-21T01:19:23.229Z,43.20
2018-01-21T01:24:26.316Z,40.20
2018-01-21T01:29:30.750Z,39.63
2018-01-21T01:34:34.966Z,39.87
2018-01-21T01:39:39.396Z,47.33
2018-01-21T01:44:42.875Z,43.27
2018-01-21T01:49:47.311Z,43.45
2018-01-21T01:54:50.393Z,43.70
2018-01-21T01:59:54.242Z,40.47
2018-01-21T02:04:58.680Z,38.97
2018-01-21T02:10:01.763Z,37.65
2018-01-21T02:15:06.387Z,37.73
2018-01-21T02:25:20.533Z,32.03
2018-01-21T02:30:23.655Z,32.70
2018-01-21T02:35:28.238Z,32.27
2018-01-21T02:40:31.336Z,29.65
2018-01-21T02:45:35.771Z,22.30
2018-01-21T02:50:40.223Z,22.40
2018-01-21T02:55:44.667Z,22.93
2018-01-21T03:00:49.099Z,19.73
2018-01-21T03:05:52.949Z,24.30
2018-01-21T03:10:57.383Z,28.03
2018-01-21T03:16:01.817Z,28.90
2018-01-21T03:21:06.263Z,29.33
2018-01-21T03:26:10.697Z,27.53
2018-01-21T03:31:14.540Z,26.03
2018-01-21T03:36:18.973Z,27.20
2018-01-21T03:41:22.458Z,27.83
2018-01-21T03:46:26.307Z,19.90
2018-01-21T03:51:29.805Z,24.50
2018-01-21T03:56:32.901Z,22.97
2018-01-21T04:01:36.403Z,26.97
2018-01-21T04:06:40.840Z,26.33
2018-01-21T04:11:45.283Z,25.47
2018-01-21T04:16:49.742Z,25.33
2018-01-21T04:22:01.970Z,20.57
2018-01-21T04:27:06.408Z,20.03
2018-01-21T04:32:10.261Z,17.80
2018-01-21T04:37:14.137Z,15.00
2018-01-21T04:42:18.750Z,17.73
2018-01-21T04:47:21.844Z,18.37
2018-01-21T04:52:26.292Z,16.77
2018-01-21T04:57:30.748Z,18.43
2018-01-21T05:02:34.969Z,24.00
2018-01-21T05:07:39.565Z,23.23
2018-01-21T05:12:43.408Z,25.03
2018-01-21T05:17:46.892Z,21.80
2018-01-21T05:22:51.337Z,22.40
2018-01-21T05:27:55.931Z,28.33
2018-01-21T05:33:00.378Z,27.17
2018-01-21T05:38:04.824Z,32.30
2018-01-21T05:43:08.677Z,30.40
2018-01-21T05:48:12.172Z,35.83
2018-01-21T05:53:16.764Z,32.08
2018-01-21T05:58:21.211Z,32.53
2018-01-21T06:03:24.301Z,37.70
2018-01-21T06:08:28.740Z,29.43
2018-01-21T06:13:33.174Z,33.20
2018-01-21T06:18:37.030Z,30.77
2018-01-21T06:23:41.260Z,28.73
2018-01-21T06:28:45.711Z,29.52
2018-01-21T06:33:49.184Z,31.20
2018-01-21T06:38:52.691Z,29.90
2018-01-21T06:43:57.112Z,34.93
2018-01-21T06:49:01.565Z,33.33
2018-01-21T06:54:04.660Z,38.47
2018-01-21T06:59:08.138Z,29.43
2018-01-21T07:04:11.641Z,28.30
2018-01-21T07:09:14.732Z,27.67
2018-01-21T07:14:18.225Z,31.50
2018-01-21T07:19:22.084Z,31.50
2018-01-21T07:24:26.541Z,27.67
2018-01-21T07:29:30.396Z,30.57
2018-01-21T07:34:34.631Z,27.73
2018-01-21T07:39:38.265Z,35.67
2018-01-21T07:44:42.300Z,26.77
2018-01-21T07:49:46.752Z,31.40
2018-01-21T07:54:51.203Z,30.73
2018-01-21T07:59:54.684Z,30.63
2018-01-21T08:04:58.537Z,28.37
2018-01-21T08:10:02.756Z,25.73
2018-01-21T08:15:05.856Z,27.87
2018-01-21T08:20:09.718Z,24.23
2018-01-21T08:25:12.813Z,25.63
2018-01-21T08:30:16.661Z,22.10
2018-01-21T08:35:25.459Z,21.70
2018-01-21T08:40:34.106Z,17.17
2018-01-21T08:45:43.764Z,18.37
2018-01-21T08:50:48.200Z,22.50
2018-01-21T08:55:52.640Z,18.20
2018-01-21T09:00:56.860Z,19.03
2018-01-21T09:06:01.083Z,16.10
2018-01-21T09:11:04.591Z,19.43
2018-01-21T09:16:08.790Z,17.90
2018-01-21T09:21:13.233Z,17.13
2018-01-21T09:26:17.664Z,17.23
2018-01-21T09:31:22.105Z,17.40
2018-01-21T09:36:25.192Z,17.00
2018-01-21T09:41:29.403Z,19.30
2018-01-21T09:46:33.316Z,16.10
2018-01-21T09:51:37.182Z,15.67
2018-01-21T09:56:41.093Z,17.43
2018-01-21T10:01:44.183Z,16.07
2018-01-21T10:06:48.032Z,17.27
2018-01-21T10:11:52.615Z,18.70
2018-01-21T10:16:55.703Z,15.47
2018-01-21T10:21:58.809Z,20.30
2018-01-21T10:27:01.888Z,18.93
2018-01-21T10:32:06.335Z,17.50
2018-01-21T10:37:10.214Z,17.87
2018-01-21T10:42:14.436Z,18.43
2018-01-21T10:47:18.882Z,17.17
2018-01-21T10:52:22.369Z,15.43
2018-01-21T10:57:26.808Z,18.07
2018-01-21T11:02:31.244Z,16.67
2018-01-21T11:07:35.671Z,17.05
2018-01-21T11:12:40.250Z,15.43
2018-01-21T11:17:44.687Z,10.60
2018-01-21T11:22:49.127Z,14.93
2018-01-21T11:27:53.348Z,15.33
2018-01-21T11:32:56.431Z,17.83
2018-01-21T11:37:59.514Z,15.50
2018-01-21T11:43:02.614Z,12.50
2018-01-21T11:48:07.205Z,13.87
2018-01-21T11:53:11.652Z,13.33
2018-01-21T11:58:14.724Z,8.80
2018-01-21T12:03:19.156Z,7.20
2018-01-21T12:08:23.615Z,11.93
2018-01-21T12:13:26.688Z,8.53
2018-01-21T12:18:31.116Z,15.43
2018-01-21T12:23:37.047Z,11.13
2018-01-21T12:28:40.525Z,12.60
2018-01-21T12:33:43.613Z,12.48
2018-01-21T12:38:47.078Z,7.00
2018-01-21T12:43:50.549Z,7.67
2018-01-21T12:48:54.038Z,17.33
2018-01-21T12:53:58.627Z,17.40
2018-01-21T12:59:01.712Z,12.47
2018-01-21T13:04:05.561Z,15.33
2018-01-21T13:09:09.788Z,12.57
2018-01-21T13:14:12.889Z,11.90
2018-01-21T13:19:18.944Z,11.90
2018-01-21T13:24:23.369Z,11.83
2018-01-21T13:29:27.808Z,13.03
2018-01-21T13:34:30.894Z,11.20
2018-01-21T13:39:33.982Z,8.60
2018-01-21T13:44:37.052Z,9.90
2018-01-21T13:49:41.476Z,9.07
2018-01-21T13:54:44.956Z,11.67
2018-01-21T13:59:48.035Z,10.73
2018-01-21T14:04:52.469Z,11.80
2018-01-21T14:09:57.048Z,8.00
2018-01-21T14:15:00.536Z,11.73
2018-01-21T14:20:04.967Z,12.23
2018-01-21T14:25:08.041Z,10.50
2018-01-21T14:30:12.283Z,8.63
2018-01-21T14:35:15.368Z,7.60
2018-01-21T14:40:19.796Z,7.60
2018-01-21T14:45:23.644Z,9.13
2018-01-21T14:50:28.078Z,11.20
2018-01-21T14:55:31.937Z,10.27
2018-01-21T15:00:35.419Z,9.90
2018-01-21T15:05:39.859Z,6.57
2018-01-21T15:10:44.444Z,9.87
2018-01-21T15:15:48.284Z,10.07
2018-01-21T15:20:52.128Z,8.87
2018-01-21T15:25:55.193Z,7.90
2018-01-21T15:30:58.281Z,11.67
2018-01-21T15:36:02.515Z,7.90
2018-01-21T15:41:06.368Z,10.53
2018-01-21T15:46:10.807Z,8.60
2018-01-21T15:51:14.653Z,10.80
2018-01-21T15:56:17.743Z,10.37
2018-01-21T16:01:20.840Z,8.50
2018-01-21T16:06:25.056Z,8.60
2018-01-21T16:11:28.922Z,7.00
2018-01-21T16:16:33.146Z,8.27
2018-01-21T16:21:36.235Z,11.53
2018-01-21T16:26:39.728Z,13.50
2018-01-21T16:31:43.591Z,10.37
2018-01-21T16:36:46.686Z,9.80
2018-01-21T16:41:51.115Z,9.10
2018-01-21T16:46:55.703Z,10.07
2018-01-21T16:51:58.775Z,15.65
2018-01-21T16:57:01.863Z,8.67
2018-01-21T17:02:06.087Z,8.27
2018-01-21T17:07:09.162Z,8.47
2018-01-21T17:12:13.751Z,9.03
2018-01-21T17:17:17.277Z,6.43
2018-01-21T17:22:20.713Z,6.43
2018-01-21T17:27:24.924Z,8.05
2018-01-21T17:32:28.024Z,7.97
2018-01-21T17:37:31.861Z,7.30
2018-01-21T17:42:36.294Z,5.93
2018-01-21T17:47:40.875Z,6.77
2018-01-21T17:52:45.097Z,7.83
2018-01-21T17:57:48.166Z,6.93
2018-01-21T18:02:52.003Z,10.93
2018-01-21T18:07:55.840Z,5.80
2018-01-21T18:12:58.925Z,6.32
2018-01-21T18:18:03.342Z,5.90
2018-01-21T18:23:07.953Z,7.73
2018-01-21T18:28:11.032Z,5.40
2018-01-21T18:33:14.120Z,7.00
2018-01-21T18:38:18.324Z,6.37
2018-01-21T18:43:22.196Z,6.23
2018-01-21T18:48:26.787Z,5.53
2018-01-21T18:53:31.210Z,13.15
2018-01-21T18:58:34.288Z,8.40
2018-01-21T19:03:38.136Z,8.43
2018-01-21T19:08:41.373Z,6.10
2018-01-21T19:13:45.211Z,9.77
2018-01-21T19:18:48.288Z,6.77
2018-01-21T19:23:51.395Z,7.10
2018-01-21T19:28:55.697Z,7.70
2018-01-21T19:33:58.781Z,9.03
2018-01-21T19:39:07.933Z,10.10
2018-01-21T19:44:13.447Z,7.25
2018-01-21T19:49:17.291Z,6.83
2018-01-21T19:54:21.287Z,9.03
2018-01-21T19:59:25.928Z,7.87
2018-01-21T20:04:30.515Z,7.00
2018-01-21T20:09:33.903Z,10.27
2018-01-21T20:14:39.447Z,8.40
2018-01-21T20:19:42.540Z,10.80
2018-01-21T20:24:45.620Z,8.55
2018-01-21T20:29:48.699Z,9.55
2018-01-21T20:34:52.592Z,10.73
2018-01-21T20:39:55.664Z,7.95
2018-01-21T20:44:59.518Z,7.80
2018-01-21T20:50:02.600Z,9.33
2018-01-21T20:55:06.440Z,8.07
2018-01-21T21:00:09.536Z,11.03
2018-01-21T21:05:13.961Z,10.97
2018-01-21T21:10:17.811Z,10.60
2018-01-21T21:15:22.243Z,9.67
2018-01-21T21:20:26.363Z,9.70
2018-01-21T21:25:29.436Z,11.27
2018-01-21T21:30:33.857Z,9.37
2018-01-21T21:35:37.711Z,9.70
2018-01-21T21:40:41.579Z,10.20
2018-01-21T21:45:45.799Z,7.83
2018-01-21T21:50:49.639Z,12.43
2018-01-21T21:55:52.725Z,6.77
2018-01-21T22:00:56.197Z,8.57
2018-01-21T22:06:00.029Z,7.63
2018-01-21T22:11:03.867Z,8.33
2018-01-21T22:16:08.076Z,8.40
2018-01-21T22:21:11.916Z,8.97
2018-01-21T22:26:14.987Z,12.20
2018-01-21T22:31:18.067Z,9.90
2018-01-21T22:36:21.527Z,9.00
2018-01-21T22:41:25.355Z,9.13
2018-01-21T22:46:29.195Z,12.83
2018-01-21T22:51:32.274Z,13.20
2018-01-21T22:56:35.356Z,12.27
2018-01-21T23:01:39.195Z,16.83
2018-01-21T23:06:42.282Z,13.77
2018-01-21T23:11:45.751Z,13.00
2018-01-21T23:16:49.601Z,15.87
2018-01-21T23:21:54.184Z,13.33
2018-01-21T23:26:57.267Z,14.27
2018-01-21T23:32:01.496Z,17.63
2018-01-21T23:37:05.947Z,15.93
2018-01-21T23:42:09.432Z,13.80
2018-01-21T23:47:13.656Z,13.73
2018-01-21T23:52:17.519Z,12.90
2018-01-21T23:57:21.003Z,15.97
